Time;durP1;ratioP1;P1;durP2;ratioP2;P2;SDS_P1;SDS_P2;PMS_P1;PMS_P2;Temp;Humidity;BMP_temperature;BMP_pressure;BME280_temperature;BME280_humidity;BME280_pressure;Samples;Min_cycle;Max_cycle;Signal;HPM_P1;HPM_P2
2023/02/18 00:00:59;;;;;;;9.95;1.05;;;;;;;8.43;100.00;101321.41;4971895;28;20426;-94
2023/02/18 00:03:26;;;;;;;10.80;1.27;;;;;;;8.42;100.00;101320.59;4970449;28;20118;-93
2023/02/18 00:05:52;;;;;;;8.00;0.90;;;;;;;8.46;100.00;101319.59;4973072;28;20031;-94
2023/02/18 00:08:18;;;;;;;4.70;0.70;;;;;;;8.35;100.00;101293.34;4976656;28;20114;-94
2023/02/18 00:10:44;;;;;;;5.20;0.60;;;;;;;8.48;100.00;101316.94;4975717;28;20038;-94
2023/02/18 00:13:10;;;;;;;7.22;0.75;;;;;;;8.41;100.00;101285.44;4976387;28;20563;-94
2023/02/18 00:15:37;;;;;;;3.15;0.80;;;;;;;8.34;100.00;101289.13;4975688;28;20038;-93
2023/02/18 00:18:03;;;;;;;10.23;0.85;;;;;;;8.43;100.00;101298.25;4972381;28;20429;-95
2023/02/18 00:20:28;;;;;;;6.50;0.90;;;;;;;8.41;100.00;101300.03;4957185;29;20019;-93
2023/02/18 00:22:54;;;;;;;7.22;0.88;;;;;;;8.30;100.00;101266.97;4973319;28;20061;-93
2023/02/18 00:25:19;;;;;;;7.63;0.93;;;;;;;8.45;100.00;101307.59;4976338;28;20031;-96
2023/02/18 00:27:45;;;;;;;4.50;0.82;;;;;;;8.41;100.00;101294.91;4973699;28;20033;-93
2023/02/18 00:30:11;;;;;;;10.63;2.67;;;;;;;8.34;100.00;101289.13;4974827;28;20066;-94
2023/02/18 00:32:36;;;;;;;4.88;1.05;;;;;;;8.33;100.00;101283.13;4976020;28;20038;-93
2023/02/18 00:35:03;;;;;;;3.05;0.70;;;;;;;8.33;100.00;101277.13;4975180;28;20026;-94
2023/02/18 00:37:29;;;;;;;7.38;1.00;;;;;;;8.46;100.00;101308.44;4976075;28;20022;-94
2023/02/18 00:39:54;;;;;;;8.50;1.30;;;;;;;8.43;100.00;101285.41;4972282;28;20034;-94
2023/02/18 00:42:20;;;;;;;11.98;1.42;;;;;;;8.42;100.00;101286.31;4956543;29;20469;-94
2023/02/18 00:44:45;;;;;;;6.00;0.47;;;;;;;8.44;100.00;101303.38;4960494;28;20070;-94
2023/02/18 00:47:11;;;;;;;6.78;0.90;;;;;;;8.48;100.00;101289.47;4976123;28;20023;-93
2023/02/18 00:49:37;;;;;;;5.30;0.68;;;;;;;8.41;100.00;101290.59;4974832;28;20058;-94
2023/02/18 00:52:03;;;;;;;10.23;1.73;;;;;;;8.40;100.00;101294.06;4974784;28;20027;-93
2023/02/18 00:54:28;;;;;;;6.40;1.20;;;;;;;8.33;100.00;101277.97;4975661;28;20392;-94
2023/02/18 00:56:54;;;;;;;12.80;1.70;;;;;;;8.32;100.00;101276.31;4974857;28;20085;-94
2023/02/18 00:59:19;;;;;;;15.18;1.05;;;;;;;8.33;100.00;101277.13;4975583;28;20027;-95
2023/02/18 01:01:45;;;;;;;7.85;1.27;;;;;;;8.39;100.00;101291.50;4970673;28;20028;-94
2023/02/18 01:04:11;;;;;;;5.15;1.30;;;;;;;8.39;100.00;101276.94;4956102;28;20032;-94
2023/02/18 01:06:37;;;;;;;8.13;1.58;;;;;;;8.41;100.00;101270.00;4964873;28;20381;-93
2023/02/18 01:09:04;;;;;;;14.30;1.58;;;;;;;8.34;100.00;101271.13;4975485;28;20030;-94
2023/02/18 01:11:30;;;;;;;5.63;1.27;;;;;;;8.52;100.00;101272.22;4971671;28;20027;-93
2023/02/18 01:13:55;;;;;;;9.95;1.40;;;;;;;8.42;100.00;101271.72;4955762;28;20023;-95
2023/02/18 01:16:21;;;;;;;6.88;1.75;;;;;;;8.49;100.00;101272.34;4955914;28;20031;-95
2023/02/18 01:18:46;;;;;;;15.82;1.95;;;;;;;8.46;100.00;101286.16;4955890;28;20035;-94
2023/02/18 01:21:12;;;;;;;10.55;1.13;;;;;;;8.43;100.00;101278.53;4963032;28;20031;-94
2023/02/18 01:23:39;;;;;;;13.55;3.03;;;;;;;8.28;100.00;101255.88;4975150;28;20030;-95
2023/02/18 01:26:05;;;;;;;10.10;1.77;;;;;;;8.35;100.00;101280.50;4973344;28;20026;-94
2023/02/18 01:28:30;;;;;;;8.85;1.58;;;;;;;8.39;100.00;101281.22;4975313;28;20396;-95
2023/02/18 01:30:56;;;;;;;9.70;1.60;;;;;;;8.42;100.00;101276.84;4974172;28;20038;-94
2023/02/18 01:33:22;;;;;;;10.55;1.02;;;;;;;8.56;100.00;101290.06;4974996;28;20050;-94
2023/02/18 01:35:48;;;;;;;12.77;1.10;;;;;;;8.50;100.00;101289.44;4974337;28;20030;-96
2023/02/18 01:38:14;;;;;;;11.85;2.42;;;;;;;8.36;100.00;101259.00;4990451;28;20027;-93
2023/02/18 01:40:52;;;;;;;11.52;1.50;;;;;;;8.31;100.00;101248.06;4975040;28;20042;-95
2023/02/18 01:43:19;;;;;;;8.90;1.05;;;;;;;8.40;100.00;101245.19;4974427;28;20034;-93
2023/02/18 01:45:49;;;;;;;7.63;1.65;;;;;;;8.34;100.00;101240.25;4975251;28;20031;-95
2023/02/18 01:48:20;;;;;;;9.43;1.13;;;;;;;8.38;100.00;101246.94;4973532;28;20042;-94
2023/02/18 01:50:49;;;;;;;7.47;0.95;;;;;;;8.40;100.00;101224.63;4970582;28;20023;-94
2023/02/18 01:53:20;;;;;;;3.72;1.10;;;;;;;8.49;100.00;101237.16;4955858;28;20046;-94
2023/02/18 01:55:48;;;;;;;4.95;1.10;;;;;;;8.35;100.00;101235.03;4955291;28;20111;-94
2023/02/18 01:58:14;;;;;;;12.50;1.15;;;;;;;8.38;100.00;101254.66;4955533;28;20031;-94
2023/02/18 02:00:40;;;;;;;7.45;2.33;;;;;;;8.37;100.00;101232.41;4968077;28;20034;-94
2023/02/18 02:03:05;;;;;;;12.63;1.20;;;;;;;8.53;100.00;101238.72;4973984;28;20521;-94
2023/02/18 02:05:32;;;;;;;12.73;1.85;;;;;;;8.53;100.00;101222.44;4974454;28;20062;-95
2023/02/18 02:08:00;;;;;;;7.35;1.20;;;;;;;8.51;100.00;101222.50;4973458;28;20489;-93
2023/02/18 02:10:37;;;;;;;13.10;1.60;;;;;;;8.58;100.00;101235.97;4974494;28;20035;-94
2023/02/18 02:13:28;;;;;;;8.32;1.27;;;;;;;8.56;100.00;101225.75;4971201;28;20019;-94
2023/02/18 02:16:08;;;;;;;5.10;0.80;;;;;;;8.67;100.00;101227.09;4970342;28;20031;-94
2023/02/18 02:18:56;;;;;;;9.13;0.73;;;;;;;8.63;100.00;101228.09;4965733;28;20040;-94
2023/02/18 02:22:03;;;;;;;7.43;1.10;;;;;;;8.60;100.00;101225.63;4955198;28;20066;-95
2023/02/18 02:24:52;;;;;;;5.10;1.00;;;;;;;8.59;100.00;101216.25;4940488;28;20039;-95
2023/02/18 02:27:59;;;;;;;8.27;0.80;;;;;;;8.59;100.00;101221.41;4974451;28;20037;-93
2023/02/18 02:30:57;;;;;;;8.75;0.98;;;;;;;8.62;100.00;101216.13;4972327;28;20043;-94
2023/02/18 02:33:55;;;;;;;8.75;1.35;;;;;;;8.52;100.00;101226.75;4954598;28;20027;-94
2023/02/18 02:36:34;;;;;;;5.22;0.80;;;;;;;8.50;100.00;101207.94;4958997;28;20043;-93
2023/02/18 02:39:23;;;;;;;7.95;0.88;;;;;;;8.54;100.00;101204.38;4973987;28;20019;-93
2023/02/18 02:42:20;;;;;;;7.95;1.00;;;;;;;8.55;100.00;101206.03;4973279;28;20106;-94
2023/02/18 02:44:59;;;;;;;6.38;0.80;;;;;;;8.52;100.00;101213.88;4973905;28;20031;-95
2023/02/18 02:47:40;;;;;;;7.75;0.95;;;;;;;8.41;100.00;101189.44;4968684;28;20035;-94
2023/02/18 02:50:19;;;;;;;8.68;1.05;;;;;;;8.31;100.00;101166.59;4954402;28;20027;-94
2023/02/18 02:52:51;;;;;;;6.55;0.90;;;;;;;8.42;100.00;101194.53;4961272;28;20468;-94
2023/02/18 02:55:17;;;;;;;5.95;0.95;;;;;;;8.61;100.00;101188.69;4973392;28;20053;-94
2023/02/18 02:57:50;;;;;;;6.80;1.23;;;;;;;8.61;100.00;101175.81;4965724;28;20545;-94
2023/02/18 03:00:19;;;;;;;6.57;0.90;;;;;;;8.61;100.00;101178.41;4965480;28;20038;-94
2023/02/18 03:02:53;;;;;;;5.45;0.90;;;;;;;8.75;100.00;101182.16;4957011;28;20030;-95
2023/02/18 03:05:25;;;;;;;8.00;1.15;;;;;;;8.86;100.00;101184.31;4953828;28;20504;-94
2023/02/18 03:08:07;;;;;;;8.75;0.40;;;;;;;8.74;100.00;101210.53;4970292;28;20420;-95
2023/02/18 03:10:48;;;;;;;8.68;1.35;;;;;;;8.90;100.00;101180.72;4989646;28;20097;-94
2023/02/18 03:13:30;;;;;;;5.60;0.55;;;;;;;8.72;100.00;101165.97;4970184;28;20058;-95
2023/02/18 03:15:58;;;;;;;;;;;;;;;8.82;100.00;101167.31;4955272;28;20027;-93
2023/02/18 03:18:36;;;;;;;9.50;1.25;;;;;;;8.66;100.00;101143.06;4973245;28;19921;-93
2023/02/18 03:21:14;;;;;;;8.82;1.30;;;;;;;8.88;100.00;101159.34;4971898;28;20576;-94
2023/02/18 03:23:51;;;;;;;2.22;0.65;;;;;;;8.98;100.00;101147.78;4957746;28;20031;-94
2023/02/18 03:26:19;;;;;;;4.53;0.98;;;;;;;8.84;100.00;101144.91;4953667;29;20066;-95
2023/02/18 03:28:48;;;;;;;7.15;0.98;;;;;;;8.79;100.00;101128.81;4969386;28;20114;-94
2023/02/18 03:31:17;;;;;;;7.28;1.17;;;;;;;9.04;100.00;101154.44;4972450;28;20030;-92
2023/02/18 03:33:50;;;;;;;8.63;1.30;;;;;;;8.73;100.00;101116.16;4968633;28;20497;-94
2023/02/18 03:36:17;;;;;;;5.15;0.68;;;;;;;8.88;100.00;101122.50;4953418;29;20062;-94
2023/02/18 03:38:48;;;;;;;8.68;1.55;;;;;;;8.83;100.00;101122.66;4978284;28;20113;-94
2023/02/18 03:41:14;;;;;;;13.20;1.42;;;;;;;8.86;100.00;101137.16;4972441;28;20823;-95
2023/02/18 03:43:47;;;;;;;6.88;0.80;;;;;;;8.92;100.00;101137.72;4971642;28;20081;-94
2023/02/18 03:46:13;;;;;;;4.25;0.98;;;;;;;8.91;100.00;101123.19;4986376;28;20114;-94
2023/02/18 03:48:38;;;;;;;6.43;1.55;;;;;;;8.84;100.00;101118.34;4971774;28;20541;-94
2023/02/18 03:51:04;;;;;;;7.22;1.20;;;;;;;8.94;100.00;101115.34;4972872;28;20393;-94
2023/02/18 03:53:30;;;;;;;3.75;1.10;;;;;;;8.93;100.00;101108.53;4972211;28;20126;-94
2023/02/18 03:55:55;;;;;;;3.63;0.70;;;;;;;8.86;100.00;101119.97;4972867;28;20260;-94
2023/02/18 03:58:21;;;;;;;11.77;0.93;;;;;;;8.80;100.00;101104.75;4972220;28;20111;-94
2023/02/18 04:00:46;;;;;;;4.75;1.02;;;;;;;8.76;100.00;101116.91;4971700;28;20557;-95
2023/02/18 04:03:12;;;;;;;16.58;1.20;;;;;;;8.60;100.00;101104.69;4972386;28;20493;-94
2023/02/18 04:05:37;;;;;;;5.05;1.30;;;;;;;8.71;100.00;101128.28;4972768;28;20027;-94
2023/02/18 04:08:04;;;;;;;5.38;0.57;;;;;;;8.49;100.00;101092.25;4972167;28;20038;-94
2023/02/18 04:10:30;;;;;;;9.25;1.48;;;;;;;8.46;100.00;101092.34;4971738;28;20393;-94
2023/02/18 04:12:55;;;;;;;9.77;1.25;;;;;;;8.63;100.00;101115.69;4972804;28;20026;-95
2023/02/18 04:15:21;;;;;;;12.68;1.13;;;;;;;8.67;100.00;101124.16;4971691;28;20033;-93
2023/02/18 04:17:46;;;;;;;7.03;1.00;;;;;;;8.54;100.00;101119.47;4972581;28;20111;-93
2023/02/18 04:20:12;;;;;;;5.22;0.80;;;;;;;8.75;100.00;101125.53;4972794;28;20031;-94
2023/02/18 04:22:37;;;;;;;6.88;1.42;;;;;;;8.61;100.00;101111.50;4971717;28;20449;-94
2023/02/18 04:25:03;;;;;;;9.60;0.80;;;;;;;8.70;100.00;101121.44;4972407;28;20019;-94
2023/02/18 04:27:28;;;;;;;9.23;0.82;;;;;;;8.67;100.00;101095.84;4972190;28;20089;-94
2023/02/18 04:29:54;;;;;;;7.93;1.00;;;;;;;8.71;100.00;101108.53;4972402;28;20073;-95
2023/02/18 04:32:20;;;;;;;5.95;0.82;;;;;;;8.68;100.00;101094.94;4969973;28;20074;-95
2023/02/18 04:34:45;;;;;;;7.60;1.10;;;;;;;8.71;100.00;101118.00;4972588;28;20472;-93
2023/02/18 04:37:10;;;;;;;6.28;1.25;;;;;;;8.61;100.00;101102.06;4971722;28;20469;-95
2023/02/18 04:39:36;;;;;;;8.40;0.80;;;;;;;8.75;100.00;101115.25;4972532;28;20038;-95
2023/02/18 04:42:07;;;;;;;7.68;0.80;;;;;;;8.67;100.00;101085.53;4971115;28;20536;-95
2023/02/18 04:44:35;;;;;;;5.25;0.93;;;;;;;8.69;100.00;101094.88;4971952;28;20485;-94
2023/02/18 04:47:01;;;;;;;5.88;1.10;;;;;;;8.73;100.00;101106.75;4972153;28;20485;-94
2023/02/18 04:49:27;;;;;;;7.05;1.10;;;;;;;8.70;100.00;101108.56;4971756;28;20030;-94
2023/02/18 04:51:52;;;;;;;9.30;1.48;;;;;;;8.88;100.00;101105.28;4972620;28;20030;-94
2023/02/18 04:54:18;;;;;;;14.13;1.40;;;;;;;8.75;100.00;101101.50;4975163;28;20019;-95
2023/02/18 04:56:43;;;;;;;7.50;1.10;;;;;;;8.73;100.00;101095.59;4975442;28;20444;-94
2023/02/18 04:59:10;;;;;;;7.85;1.00;;;;;;;8.82;100.00;101089.25;4974943;28;20501;-95
2023/02/18 05:01:35;;;;;;;8.48;2.17;;;;;;;9.08;100.00;101126.84;4971887;28;20433;-95
2023/02/18 05:04:01;;;;;;;6.65;1.02;;;;;;;8.95;100.00;101116.19;4956269;28;20035;-95
2023/02/18 05:06:27;;;;;;;7.57;1.27;;;;;;;9.11;100.00;101124.13;4966970;28;20035;-94
2023/02/18 05:08:52;;;;;;;13.80;1.10;;;;;;;8.94;100.00;101114.50;4975447;28;20030;-94
2023/02/18 05:11:18;;;;;;;5.50;0.75;;;;;;;9.12;100.00;101128.38;4974411;28;20062;-95
2023/02/18 05:13:43;;;;;;;9.45;1.13;;;;;;;9.13;100.00;101105.13;4975232;28;20039;-94
2023/02/18 05:16:09;;;;;;;2.72;0.65;;;;;;;9.06;100.00;101123.47;4975334;28;20113;-93
2023/02/18 05:18:34;;;;;;;6.22;1.05;;;;;;;8.89;100.00;101106.97;4972109;28;20109;-95
2023/02/18 05:21:00;;;;;;;5.00;1.02;;;;;;;9.10;100.00;101132.78;4956083;29;20034;-94
2023/02/18 05:23:26;;;;;;;9.55;1.48;;;;;;;9.05;100.00;101122.66;4972319;28;20030;-94
2023/02/18 05:25:51;;;;;;;8.27;1.00;;;;;;;9.14;100.00;101131.72;4975275;28;20030;-95
2023/02/18 05:28:17;;;;;;;4.55;1.23;;;;;;;9.23;100.00;101131.34;4974622;28;20067;-94
2023/02/18 05:30:42;;;;;;;13.35;1.58;;;;;;;9.08;100.00;101119.13;4974781;28;20062;-94
2023/02/18 05:33:08;;;;;;;8.95;1.40;;;;;;;8.84;100.00;101116.59;4974598;28;20062;-95
2023/02/18 05:35:33;;;;;;;6.05;1.00;;;;;;;8.91;100.00;101148.94;4974207;28;20404;-95
2023/02/18 05:37:59;;;;;;;10.25;1.48;;;;;;;9.08;100.00;101147.44;4972893;28;20042;-94
2023/02/18 05:40:24;;;;;;;5.53;1.10;;;;;;;8.82;100.00;101126.13;4974879;28;20027;-95
2023/02/18 05:42:50;;;;;;;10.80;2.00;;;;;;;8.95;100.00;101137.63;4969775;28;20604;-95
2023/02/18 05:45:15;;;;;;;9.30;1.35;;;;;;;8.75;100.00;101120.38;4974593;28;20054;-94
2023/02/18 05:47:41;;;;;;;15.18;1.45;;;;;;;8.83;100.00;101143.25;4974066;28;20027;-94
2023/02/18 05:50:07;;;;;;;13.70;1.75;;;;;;;8.69;100.00;101154.06;4974461;28;20503;-94
2023/02/18 05:52:33;;;;;;;7.78;1.58;;;;;;;8.70;100.00;101131.75;4973517;28;20031;-94
2023/02/18 05:54:58;;;;;;;10.32;1.63;;;;;;;8.64;100.00;101127.69;4990770;28;20023;-94
2023/02/18 05:57:24;;;;;;;8.25;1.35;;;;;;;8.55;100.00;101105.69;4974781;28;20561;-94
2023/02/18 05:59:49;;;;;;;6.28;0.88;;;;;;;8.55;100.00;101107.44;4973854;28;20023;-95
2023/02/18 06:02:15;;;;;;;8.90;1.27;;;;;;;8.56;100.00;101104.81;4974064;28;20374;-95
2023/02/18 06:04:40;;;;;;;11.27;1.30;;;;;;;8.30;100.00;101097.22;4973665;28;20027;-95
2023/02/18 06:07:06;;;;;;;16.92;1.92;;;;;;;8.32;100.00;101093.69;4970609;28;20041;-95
2023/02/18 06:09:31;;;;;;;14.48;1.50;;;;;;;8.42;100.00;101117.38;4988299;28;20030;-94
2023/02/18 06:11:57;;;;;;;9.60;1.33;;;;;;;8.40;100.00;101106.28;4974312;28;20030;-95
2023/02/18 06:14:23;;;;;;;9.68;1.35;;;;;;;8.43;100.00;101113.88;4973623;28;20038;-93
2023/02/18 06:16:49;;;;;;;12.13;1.40;;;;;;;8.40;100.00;101116.56;4968921;28;20089;-94
2023/02/18 06:19:14;;;;;;;8.10;1.60;;;;;;;8.34;100.00;101104.75;4955058;29;20027;-94
2023/02/18 06:21:40;;;;;;;5.78;0.80;;;;;;;8.33;100.00;101086.81;4965666;28;20440;-94
2023/02/18 06:24:06;;;;;;;10.57;2.00;;;;;;;8.66;100.00;101119.91;4973105;28;20027;-94
2023/02/18 06:26:33;;;;;;;5.60;1.05;;;;;;;8.53;100.00;101115.22;4973832;28;20026;-93
2023/02/18 06:28:58;;;;;;;4.95;0.90;;;;;;;8.43;100.00;101098.44;4973941;28;20023;-95
2023/02/18 06:31:24;;;;;;;10.38;1.20;;;;;;;8.43;100.00;101095.88;4973967;28;20492;-95
2023/02/18 06:33:49;;;;;;;10.63;1.10;;;;;;;8.49;100.00;101125.69;4973787;28;20031;-94
2023/02/18 06:36:15;;;;;;;13.45;1.88;;;;;;;8.42;100.00;101098.53;4970557;28;20083;-94
2023/02/18 06:38:43;;;;;;;13.05;1.00;;;;;;;8.46;100.00;101103.50;4964486;28;20031;-95
2023/02/18 06:41:12;;;;;;;10.48;1.08;;;;;;;8.51;100.00;101100.72;4973110;28;20133;-95
2023/02/18 06:43:37;;;;;;;7.22;1.02;;;;;;;8.57;100.00;101121.91;4973888;28;20445;-95
2023/02/18 06:46:04;;;;;;;11.18;1.17;;;;;;;8.52;100.00;101094.69;4965898;28;20062;-95
2023/02/18 06:48:30;;;;;;;9.68;1.85;;;;;;;8.68;100.00;101125.81;4966026;28;20074;-93
2023/02/18 06:50:56;;;;;;;7.65;0.88;;;;;;;8.56;100.00;101109.97;4972964;28;20059;-94
2023/02/18 06:53:21;;;;;;;5.30;1.45;;;;;;;8.61;100.00;101098.63;4972689;28;20477;-94
2023/02/18 06:55:47;;;;;;;9.85;1.20;;;;;;;8.61;100.00;101107.22;4973681;28;20515;-95
2023/02/18 06:58:13;;;;;;;6.20;0.80;;;;;;;8.57;100.00;101108.22;4973053;28;20046;-94
2023/02/18 07:00:39;;;;;;;6.30;1.00;;;;;;;8.61;100.00;101106.34;4972814;28;20037;-96
2023/02/18 07:03:06;;;;;;;6.28;0.82;;;;;;;8.50;100.00;101092.19;4973399;28;20089;-95
2023/02/18 07:05:32;;;;;;;6.70;1.02;;;;;;;8.61;100.00;101103.78;4972484;28;20027;-92
2023/02/18 07:07:57;;;;;;;10.55;0.80;;;;;;;8.68;100.00;101120.66;4973255;28;20039;-93
2023/02/18 07:10:23;;;;;;;4.90;0.75;;;;;;;8.66;100.00;101109.63;4972691;28;20069;-94
2023/02/18 07:12:49;;;;;;;7.93;0.93;;;;;;;8.71;100.00;101128.28;4971349;28;20023;-94
2023/02/18 07:15:14;;;;;;;5.65;0.77;;;;;;;8.61;100.00;101086.63;4972222;28;20030;-94
2023/02/18 07:17:40;;;;;;;12.52;0.98;;;;;;;8.78;100.00;101132.31;4972428;28;20026;-94
2023/02/18 07:20:07;;;;;;;4.53;0.65;;;;;;;8.73;100.00;101111.03;4973278;28;20500;-95
2023/02/18 07:22:32;;;;;;;3.30;0.60;;;;;;;8.87;100.00;101128.50;4972253;28;20050;-94
2023/02/18 07:24:58;;;;;;;4.85;0.73;;;;;;;8.74;100.00;101110.16;4957088;28;20074;-93
2023/02/18 07:27:23;;;;;;;3.60;0.70;;;;;;;8.74;100.00;101118.69;4956331;28;20045;-94
2023/02/18 07:29:49;;;;;;;2.13;0.30;;;;;;;8.82;100.00;101141.56;4987672;28;20018;-93
2023/02/18 07:32:17;;;;;;;2.50;0.30;;;;;;;8.73;100.00;101131.63;4969934;28;20050;-94
2023/02/18 07:34:43;;;;;;;2.80;0.60;;;;;;;8.75;100.00;101134.97;4957115;28;20035;-94
2023/02/18 07:37:09;;;;;;;1.42;0.40;;;;;;;8.79;100.00;101136.53;4955214;28;20027;-96
2023/02/18 07:39:35;;;;;;;2.83;0.85;;;;;;;8.70;100.00;101134.31;4952996;28;20078;-96
2023/02/18 07:42:04;;;;;;;4.82;0.57;;;;;;;8.76;100.00;101129.78;4960956;28;20030;-95
2023/02/18 07:44:29;;;;;;;3.22;0.68;;;;;;;8.86;100.00;101150.03;4961531;28;20110;-95
2023/02/18 07:46:55;;;;;;;5.25;0.47;;;;;;;8.85;100.00;101120.00;4953398;28;20106;-94
2023/02/18 07:49:21;;;;;;;5.28;0.45;;;;;;;8.77;100.00;101115.16;4957454;28;20093;-95
2023/02/18 07:51:47;;;;;;;2.85;0.43;;;;;;;8.84;100.00;101129.47;4972041;28;20018;-94
2023/02/18 07:54:13;;;;;;;3.30;0.47;;;;;;;8.86;100.00;101126.84;4956850;28;20038;-96
2023/02/18 07:56:39;;;;;;;1.85;0.40;;;;;;;8.78;100.00;101114.28;4963814;28;20024;-95
2023/02/18 07:59:05;;;;;;;2.28;0.40;;;;;;;8.77;100.00;101123.72;4971028;28;20496;-95
2023/02/18 08:01:31;;;;;;;4.00;0.63;;;;;;;8.84;100.00;101118.34;4958374;28;20031;-96
2023/02/18 08:03:56;;;;;;;6.22;1.08;;;;;;;9.00;100.00;101155.47;4961584;28;20088;-95
2023/02/18 08:06:29;;;;;;;3.35;0.57;;;;;;;8.78;100.00;101134.88;4961282;28;20492;-96
2023/02/18 08:08:55;;;;;;;1.75;0.30;;;;;;;8.90;100.00;101126.69;4960128;28;20039;-95
2023/02/18 08:11:20;;;;;;;2.88;0.52;;;;;;;8.95;100.00;101158.22;4965726;28;20027;-96
2023/02/18 08:13:47;;;;;;;3.17;0.65;;;;;;;8.92;100.00;101162.63;4965532;28;20023;-95
2023/02/18 08:16:13;;;;;;;7.47;1.85;;;;;;;8.85;100.00;101148.31;4970327;28;20023;-95
2023/02/18 08:18:39;;;;;;;4.72;1.83;;;;;;;8.79;100.00;101131.41;4968251;28;20097;-94
2023/02/18 08:21:04;;;;;;;4.93;0.75;;;;;;;8.88;100.00;101151.63;4966976;28;20401;-95
2023/02/18 08:23:30;;;;;;;11.40;1.00;;;;;;;8.90;100.00;101160.13;4967592;28;20022;-95
2023/02/18 08:25:55;;;;;;;10.82;1.55;;;;;;;8.89;100.00;101153.28;4958436;28;20069;-95
2023/02/18 08:28:23;;;;;;;10.07;1.27;;;;;;;8.96;100.00;101159.88;4965703;28;20468;-95
2023/02/18 08:30:51;;;;;;;11.90;1.30;;;;;;;8.74;100.00;101130.72;4976746;28;20090;-94
2023/02/18 08:33:17;;;;;;;9.00;1.33;;;;;;;8.93;100.00;101159.19;4965228;28;20457;-96
2023/02/18 08:35:44;;;;;;;6.35;1.50;;;;;;;8.84;100.00;101144.91;4961491;28;20042;-95
2023/02/18 08:38:10;;;;;;;6.13;1.25;;;;;;;8.89;100.00;101157.63;4960386;28;20034;-95
2023/02/18 08:40:36;;;;;;;11.57;1.20;;;;;;;8.80;100.00;101148.50;4955984;28;20374;-95
2023/02/18 08:43:01;;;;;;;9.27;1.52;;;;;;;8.87;100.00;101161.97;4956107;28;20050;-95
2023/02/18 08:45:27;;;;;;;6.63;1.30;;;;;;;8.91;100.00;101169.53;4973937;28;20063;-95
2023/02/18 08:47:53;;;;;;;11.40;1.67;;;;;;;8.79;100.00;101151.97;4973932;28;20113;-96
2023/02/18 08:50:19;;;;;;;12.13;2.53;;;;;;;8.98;100.00;101177.84;4960803;28;20030;-95
2023/02/18 08:52:46;;;;;;;8.48;1.35;;;;;;;8.96;100.00;101172.75;4973610;28;20031;-95
2023/02/18 08:55:12;;;;;;;8.05;1.38;;;;;;;8.96;100.00;101170.19;4966135;28;20026;-95
2023/02/18 08:57:38;;;;;;;4.95;1.10;;;;;;;8.98;100.00;101158.09;4969451;28;20109;-95
2023/02/18 09:00:04;;;;;;;6.00;1.25;;;;;;;9.05;100.00;101178.47;4959687;28;20067;-95
2023/02/18 09:02:30;;;;;;;6.22;1.10;;;;;;;9.05;100.00;101156.13;4965304;28;20544;-96
2023/02/18 09:04:56;;;;;;;11.02;1.77;;;;;;;9.15;100.00;101166.91;4957291;28;21342;-96
2023/02/18 09:07:22;;;;;;;6.55;0.90;;;;;;;9.17;100.00;101170.25;4963412;28;20032;-95
2023/02/18 09:09:47;;;;;;;16.92;2.45;;;;;;;9.07;100.00;101162.06;4961972;28;20466;-95
2023/02/18 09:12:13;;;;;;;3.75;1.35;;;;;;;9.22;100.00;101170.91;4956925;28;20031;-95
2023/02/18 09:14:38;;;;;;;10.75;1.98;;;;;;;9.16;100.00;101171.13;4975231;28;20058;-94
2023/02/18 09:17:04;;;;;;;4.53;0.98;;;;;;;9.29;100.00;101186.94;4970786;28;20248;-95
2023/02/18 09:19:29;;;;;;;7.40;1.00;;;;;;;9.34;100.00;101191.03;4975272;28;20027;-93
2023/02/18 09:21:56;;;;;;;12.60;2.28;;;;;;;9.20;100.00;101189.00;4969108;28;20023;-95
2023/02/18 09:24:23;;;;;;;5.22;1.08;;;;;;;9.18;100.00;101170.19;4968887;28;20022;-95
2023/02/18 09:26:49;;;;;;;6.50;1.40;;;;;;;9.12;100.00;101162.72;4973854;28;20023;-96
2023/02/18 09:29:15;;;;;;;10.00;1.40;;;;;;;9.07;100.00;101156.03;4975283;28;20030;-96
2023/02/18 09:31:40;;;;;;;5.65;1.08;;;;;;;9.34;100.00;101174.69;4975221;28;20023;-94
2023/02/18 09:34:06;;;;;;;8.32;1.20;;;;;;;9.31;100.00;101185.13;4975211;28;20023;-95
2023/02/18 09:36:32;;;;;;;7.75;1.05;;;;;;;9.40;100.00;101170.16;4970015;28;20063;-95
2023/02/18 09:38:58;;;;;;;10.25;1.02;;;;;;;9.33;100.00;101168.72;4966323;28;20119;-95
2023/02/18 09:41:37;;;;;;;8.40;1.60;;;;;;;9.25;100.00;101165.63;4969495;28;20022;-95
2023/02/18 09:44:15;;;;;;;7.10;1.30;;;;;;;9.31;100.00;101174.84;4961829;28;20027;-94
2023/02/18 09:47:01;;;;;;;14.75;1.92;;;;;;;9.40;100.00;101172.72;4958769;28;20058;-95
2023/02/18 09:49:32;;;;;;;6.25;1.08;;;;;;;9.46;100.00;101183.69;4969726;28;20026;-96
2023/02/18 09:52:10;;;;;;;11.87;1.23;;;;;;;9.54;100.00;101158.44;4966250;28;20107;-95
2023/02/18 09:54:35;;;;;;;3.17;1.00;;;;;;;9.62;100.00;101188.13;4959735;28;20357;-96
2023/02/18 09:57:03;;;;;;;10.98;1.38;;;;;;;9.59;100.00;101171.97;4976866;28;20027;-95
2023/02/18 09:59:30;;;;;;;12.13;1.63;;;;;;;9.46;100.00;101157.91;4958918;28;20031;-96
2023/02/18 10:01:56;;;;;;;9.95;1.73;;;;;;;9.48;100.00;101156.13;4967516;28;20027;-95
2023/02/18 10:04:31;;;;;;;8.43;1.42;;;;;;;9.46;100.00;101152.75;4969375;28;20019;-95
2023/02/18 10:06:57;;;;;;;6.40;1.45;;;;;;;9.62;100.00;101152.06;4971886;28;20070;-95
2023/02/18 10:09:34;;;;;;;5.28;1.25;;;;;;;9.66;100.00;101157.94;4972754;28;20046;-95
2023/02/18 10:12:14;;;;;;;6.50;1.23;;;;;;;9.64;100.00;101167.47;4973373;28;20027;-95
2023/02/18 10:14:48;;;;;;;7.25;1.20;;;;;;;9.62;100.00;101144.31;4991263;28;20027;-96
2023/02/18 10:17:16;;;;;;;4.05;1.00;;;;;;;9.72;100.00;101162.81;4972859;28;20438;-96
2023/02/18 10:19:45;;;;;;;6.82;1.20;;;;;;;9.65;100.00;101133.03;4969541;28;20090;-95
2023/02/18 10:22:13;;;;;;;9.48;1.58;;;;;;;9.68;100.00;101126.91;4954917;28;20059;-96
2023/02/18 10:25:02;;;;;;;8.25;1.40;;;;;;;9.86;100.00;101157.09;4964326;28;20506;-95
2023/02/18 10:27:34;;;;;;;5.80;1.35;;;;;;;9.83;100.00;101137.44;4964488;28;20027;-95
2023/02/18 10:30:14;;;;;;;9.70;1.20;;;;;;;10.15;100.00;101158.41;4966417;28;20035;-95
2023/02/18 10:32:43;;;;;;;12.73;1.67;;;;;;;9.98;100.00;101155.72;4971088;28;20042;-95
2023/02/18 10:35:51;;;;;;;10.20;1.38;;;;;;;9.98;100.00;101177.19;4970192;28;20137;-95
2023/02/18 10:38:52;;;;;;;6.72;1.63;;;;;;;9.98;100.00;101132.50;4893459;28;20075;-96
2023/02/18 10:41:42;;;;;;;8.27;1.88;;;;;;;10.13;100.00;101170.53;4971880;28;20073;-95
2023/02/18 10:44:29;;;;;;;7.70;1.58;;;;;;;10.20;100.00;101168.53;4971035;28;20047;-95
2023/02/18 10:47:12;;;;;;;10.00;2.30;;;;;;;10.05;100.00;101157.13;4970351;28;20034;-95
2023/02/18 10:50:07;;;;;;;6.90;1.95;;;;;;;10.36;100.00;101168.69;4971548;28;20066;-96
2023/02/18 10:52:37;;;;;;;9.07;1.70;;;;;;;10.43;100.00;101147.69;4967734;28;20540;-94
2023/02/18 10:55:08;;;;;;;9.45;1.40;;;;;;;10.43;100.00;101157.19;4951769;28;20070;-96
2023/02/18 10:57:34;;;;;;;6.67;2.37;;;;;;;10.42;100.00;101155.53;4967157;28;20130;-96
2023/02/18 11:00:25;;;;;;;7.20;1.70;;;;;;;10.31;100.00;101143.09;4972582;28;20505;-95
2023/02/18 11:03:16;;;;;;;13.50;2.17;;;;;;;10.31;100.00;101139.69;4970043;28;20055;-96
2023/02/18 11:05:55;;;;;;;7.87;1.47;;;;;;;10.30;100.00;101151.75;4984316;28;20042;-96
2023/02/18 11:08:44;;;;;;;13.50;1.77;;;;;;;10.33;100.00;101145.63;4971796;28;20404;-96
2023/02/18 11:11:37;;;;;;;12.05;1.70;;;;;;;10.24;100.00;101163.16;4956990;28;20022;-96
2023/02/18 11:14:12;;;;;;;9.00;1.63;;;;;;;10.09;100.00;101148.34;4970160;28;20177;-96
2023/02/18 11:16:54;;;;;;;;;;;;;;;;;;;;;
2023/02/18 11:19:38;;;;;;;7.93;1.90;;;;;;;10.22;100.00;101170.13;4976862;28;20121;-94
2023/02/18 11:22:42;;;;;;;8.32;1.70;;;;;;;10.48;100.00;101165.56;4967939;28;20102;-96
2023/02/18 11:25:32;;;;;;;10.25;2.45;;;;;;;10.42;100.00;101166.69;4972020;28;20058;-95
2023/02/18 11:28:06;;;;;;;10.70;2.22;;;;;;;10.53;100.00;101163.59;4976735;28;20100;-96
2023/02/18 11:30:37;;;;;;;9.02;1.80;;;;;;;10.67;100.00;101171.56;4964064;28;20029;-96
2023/02/18 11:33:17;;;;;;;9.53;1.70;;;;;;;10.77;100.00;101171.97;4971022;28;20109;-96
2023/02/18 11:36:17;;;;;;;6.15;1.45;;;;;;;10.80;100.00;101165.81;4972736;28;20265;-94